Flight Track Log - Related Links

Times and Time Zones

All times are in EDT time to prevent confusion due to time zone crossing. See the FDX2497 flight status page for this flight to view local times or setup timezone preferences in your user account.

Time Position Orientation Groundspeed Altitude Reporting Facility
EDT Latitude Longitude Course Direction KTS MPH feet Rate Location/Type
Sat 05:01:49 AM 35.0481 -89.9733 359° North 120 138 1,700  Level FAA TRACON SMA TRACON (SMA)
Sat 05:02:29 AM 35.0758 -89.9742 10° North 157 181 3,100 2,700 Climbing FAA TRACON SMA TRACON (SMA)
Sat 05:03:09 AM 35.1217 -89.9639 North 246 283 5,300 4,074 Climbing FAA TRACON SMA TRACON (SMA)
Sat 05:03:50 AM 35.1725 -89.9536 21° North 267 307 8,600 4,275 Climbing FAA TRACON SMA TRACON (SMA)
Sat 05:04:29 AM 35.2244 -89.9294 54° Northeast 304 350 11,000 2,625 Climbing FAA TRACON SMA TRACON (SMA)
Sat 05:05:10 AM 35.2625 -89.8661 60° Northeast 371 427 12,100 2,925 Climbing FAA TRACON SMA TRACON (SMA)
Sat 05:05:49 AM 35.3019 -89.7814 60° Northeast 410 472 14,900 2,925 Climbing FAA TRACON SMA TRACON (SMA)
Sat 05:06:30 AM 35.3450 -89.6911 58° Northeast 438 504 16,000 2,775 Climbing FAA TRACON SMA TRACON (SMA)
Sat 05:07:09 AM 35.3889 -89.6064 59° Northeast 451 519 18,600 3,675 Climbing FAA TRACON SMA TRACON (SMA)
Sat 05:07:50 AM 35.4331 -89.5167 58° Northeast 453 521 20,900 3,075 Climbing FAA TRACON SMA TRACON (SMA)
Sat 05:08:29 AM 35.4794 -89.4244 58° Northeast 465 535 22,700 2,700 Climbing FAA TRACON SMA TRACON (SMA)
Sat 05:09:10 AM 35.5289 -89.3267 59° Northeast 494 568 24,500 2,625 Climbing FAA TRACON SMA TRACON (SMA)
Sat 05:09:49 AM 35.5758 -89.2319 57° Northeast 504 580 26,200 2,025 Climbing FAA TRACON SMA TRACON (SMA)
Sat 05:10:30 AM 35.6047 -89.1772 59° Northeast 507 583 27,200 2,619 Climbing FAA TRACON SMA TRACON (SMA)
Sat 05:11:55 AM 35.7269 -88.9300 59° Northeast 510 587 31,700 2,814 Climbing Memphis Center
Sat 05:12:55 AM 35.8022 -88.7753 58° Northeast 515 593 34,000 2,150 Climbing Memphis Center
Sat 05:13:55 AM 35.8794 -88.6253 62° Northeast 515 593 36,000 1,500 Climbing Memphis Center
Sat 05:14:55 AM 35.9481 -88.4672 59° Northeast 520 598 37,000 500 Climbing Memphis Center
Sat 05:15:55 AM 36.0189 -88.3194 61° Northeast 509 586 37,000  Level Memphis Center
Sat 05:16:55 AM 36.0872 -88.1686 61° Northeast 509 586 37,000  Level Memphis Center
Sat 05:17:55 AM 36.1611 -88.0047 62° Northeast 503 579 37,000  Level Memphis Center
Sat 05:18:55 AM 36.2269 -87.8536 61° Northeast 498 573 37,000  Level Memphis Center
Sat 05:19:55 AM 36.2969 -87.6994 61° Northeast 510 587 37,000 500 Level Memphis Center
Sat 05:20:55 AM 36.3644 -87.5478 61° Northeast 505 581 38,000 900 Climbing Memphis Center
Sat 05:21:55 AM 36.4317 -87.3958 62° Northeast 505 581 38,800 500 Climbing Memphis Center
Sat 05:22:55 AM 36.4989 -87.2411 61° Northeast 505 581 39,000 77 Climbing Memphis Center
Sat 05:24:31 AM 36.6110 -86.9850 62° Northeast 515 593 39,000  Level FlightAware ADS-B
Sat 05:25:04 AM 36.6489 -86.8964 61° Northeast 515 593 39,000  Level FlightAware ADS-B
Sat 05:25:35 AM 36.6833 -86.8180 61° Northeast 515 593 39,000  Level FlightAware ADS-B
Sat 05:26:05 AM 36.7173 -86.7399 62° Northeast 513 590 39,000  Level FlightAware ADS-B
Sat 05:26:35 AM 36.7511 -86.6596 62° Northeast 512 589 39,000  Level FlightAware ADS-B
Sat 05:27:05 AM 36.7848 -86.5817 62° Northeast 511 588 39,000  Level FlightAware ADS-B
Sat 05:27:35 AM 36.8183 -86.5036 62° Northeast 512 589 39,000  Level FlightAware ADS-B
Sat 05:28:05 AM 36.8517 -86.4256 62° Northeast 511 588 39,000  Level FlightAware ADS-B
Sat 05:28:35 AM 36.8854 -86.3476 62° Northeast 511 588 39,000  Level FlightAware ADS-B
Sat 05:29:19 AM 36.9337 -86.2330 62° Northeast 511 588 39,000  Level FlightAware ADS-B
Sat 05:30:12 AM 36.9921 -86.0976 62° Northeast 510 587 39,000  Level FlightAware ADS-B
Sat 05:30:43 AM 37.0261 -86.0170 62° Northeast 507 583 39,000  Level FlightAware ADS-B
Sat 05:31:13 AM 37.0599 -85.9359 62° Northeast 512 589 39,000  Level FlightAware ADS-B
Sat 05:31:45 AM 37.0946 -85.8543 63° Northeast 516 594 39,000  Level FlightAware ADS-B
Sat 05:32:15 AM 37.1283 -85.7727 62° Northeast 513 590 39,000  Level FlightAware ADS-B
Sat 05:32:45 AM 37.1614 -85.6934 62° Northeast 514 592 39,000  Level FlightAware ADS-B
Sat 05:33:16 AM 37.1958 -85.6114 62° Northeast 515 593 39,000  Level FlightAware ADS-B
Sat 05:33:47 AM 37.2292 -85.5321 63° Northeast 517 595 39,000  Level FlightAware ADS-B
Sat 05:34:17 AM 37.2628 -85.4496 62° Northeast 518 596 39,000  Level FlightAware ADS-B
Sat 05:34:48 AM 37.2970 -85.3672 62° Northeast 516 594 39,000  Level FlightAware ADS-B
Sat 05:35:20 AM 37.3316 -85.2847 62° Northeast 514 592 39,000  Level FlightAware ADS-B
Sat 05:35:50 AM 37.3647 -85.2052 63° Northeast 517 595 39,000  Level FlightAware ADS-B
Sat 05:36:20 AM 37.3980 -85.1224 62° Northeast 517 595 39,000  Level FlightAware ADS-B
Sat 05:36:51 AM 37.4315 -85.0422 63° Northeast 516 594 39,000  Level FlightAware ADS-B
Sat 05:37:22 AM 37.4654 -84.9573 62° Northeast 513 590 39,000  Level FlightAware ADS-B
Sat 05:37:53 AM 37.4986 -84.8777 63° Northeast 513 590 39,000  Level FlightAware ADS-B
Sat 05:38:23 AM 37.5322 -84.7951 63° Northeast 515 593 39,000  Level FlightAware ADS-B
Sat 05:38:56 AM 37.5657 -84.7125 63° Northeast 513 590 39,000  Level FlightAware ADS-B
Sat 05:39:27 AM 37.6003 -84.6276 63° Northeast 512 589 39,000  Level FlightAware ADS-B
Sat 05:39:50 AM 37.6256 -84.5637 63° Northeast 512 589 39,000  Level FlightAware ADS-B
Sat 05:40:08 AM 37.6442 -84.5184 64° Northeast 511 588 39,000  Level FlightAware ADS-B
Sat 05:40:41 AM 37.6798 -84.4278 62° Northeast 515 593 39,000  Level FlightAware ADS-B
Sat 05:40:56 AM 37.6956 -84.3901 63° Northeast 514 592 39,000  Level FlightAware ADS-B
Sat 05:41:18 AM 37.7194 -84.3313 64° Northeast 515 593 39,000  Level FlightAware ADS-B
Sat 05:41:28 AM 37.7300 -84.3044 63° Northeast 515 593 39,000  Level FlightAware ADS-B
Sat 05:41:56 AM 37.7600 -84.2293 63° Northeast 516 594 39,000  Level FlightAware ADS-B
Sat 05:42:27 AM 37.7918 -84.1486 63° Northeast 516 594 39,000  Level FlightAware ADS-B
Sat 05:42:52 AM 37.8202 -84.0787 64° Northeast 515 593 39,000  Level FlightAware ADS-B
Sat 05:43:36 AM 37.8675 -83.9577 63° Northeast 513 590 39,000  Level FlightAware ADS-B
Sat 05:44:07 AM 37.9001 -83.8749 63° Northeast 511 588 39,000  Level FlightAware ADS-B
Sat 05:44:52 AM 37.9478 -83.7546 63° Northeast 509 586 39,000  Level FlightAware ADS-B
Sat 05:46:19 AM 38.0344 -83.5358 63° Northeast 502 578 39,000  Level Indianapolis Center
Sat 05:47:19 AM 38.0992 -83.3722 63° Northeast 502 578 39,000  Level Indianapolis Center
Sat 05:48:19 AM 38.1633 -83.2083 64° Northeast 507 583 39,000  Level Indianapolis Center
Sat 05:49:19 AM 38.2192 -83.0628 64° Northeast 512 589 39,000  Level Indianapolis Center
Sat 05:50:19 AM 38.2808 -82.9008 64° Northeast 506 582 39,000  Level Indianapolis Center
Sat 05:51:19 AM 38.3444 -82.7361 65° Northeast 511 588 39,000  Level Indianapolis Center
Sat 05:52:19 AM 38.4039 -82.5764 64° Northeast 501 577 39,000  Level Indianapolis Center
Sat 05:53:19 AM 38.4669 -82.4111 64° Northeast 501 577 39,000  Level Indianapolis Center
Sat 05:54:19 AM 38.5278 -82.2483 65° Northeast 501 577 39,000  Level Indianapolis Center
Sat 05:55:19 AM 38.5883 -82.0825 64° Northeast 506 582 39,000  Level Indianapolis Center
Sat 05:56:19 AM 38.6508 -81.9164 64° Northeast 506 582 39,000  Level Indianapolis Center
Sat 05:57:19 AM 38.7192 -81.7364 66° East 506 582 39,000  Level Indianapolis Center
Sat 05:58:19 AM 38.7731 -81.5781 64° Northeast 512 589 39,000  Level Indianapolis Center
Sat 05:59:19 AM 38.8428 -81.3947 65° Northeast 518 596 39,000  Level Indianapolis Center
Sat 06:00:19 AM 38.9022 -81.2300 65° Northeast 513 590 39,000  Level Indianapolis Center
Sat 06:01:53 AM 38.9972 -80.9650 66° East 503 579 39,000  Level Cleveland Center
Sat 06:02:53 AM 39.0561 -80.7969 64° Northeast 509 586 39,000  Level Cleveland Center
Sat 06:03:53 AM 39.1167 -80.6339 66° East 509 586 39,000  Level Cleveland Center
Sat 06:04:53 AM 39.1750 -80.4681 66° East 503 579 39,000  Level Cleveland Center
Sat 06:05:53 AM 39.2331 -80.2989 66° East 508 585 39,000  Level Cleveland Center
Sat 06:06:53 AM 39.2908 -80.1325 65° Northeast 508 585 39,000  Level Cleveland Center
Sat 06:07:53 AM 39.3506 -79.9656 66° East 508 585 39,000  Level Cleveland Center
Sat 06:08:53 AM 39.4078 -79.8014 66° East 503 579 39,000  Level Cleveland Center
Sat 06:09:53 AM 39.4650 -79.6367 66° East 503 579 39,000  Level Cleveland Center
Sat 06:10:53 AM 39.5219 -79.4717 67° East 503 579 39,000  Level Cleveland Center
Sat 06:11:53 AM 39.5725 -79.3200 66° East 503 579 39,000  Level Cleveland Center
Sat 06:12:53 AM 39.6289 -79.1544 67° East 503 579 39,000  Level Cleveland Center
Sat 06:13:53 AM 39.6828 -78.9917 67° East 503 579 39,000 -300 Level Cleveland Center
Sat 06:15:53 AM 39.7864 -78.6650 65° Northeast 493 567 38,100 -1,200 Descending Cleveland Center
Sat 06:16:53 AM 39.8419 -78.5067 67° East 488 562 35,400 -2,778 Descending Cleveland Center
Sat 06:18:35 AM 39.9294 -78.2378 68° East 480 552 30,600 -2,724 Descending New York Center
Sat 06:19:58 AM 40.0115 -77.9702 73° East 519 597 27,000 -2,439 Descending FlightAware ADS-B
Sat 06:20:38 AM 40.0381 -77.8528 74° East 518 596 25,600 -2,026 Descending FlightAware ADS-B
Sat 06:21:15 AM 40.0625 -77.7431 73° East 509 586 24,400 -1,433 Descending FlightAware ADS-B
Sat 06:21:45 AM 40.0828 -77.6536 73° East 498 573 24,000 -400 Descending FlightAware ADS-B
Sat 06:22:15 AM 40.1027 -77.5674 73° East 497 572 24,000  Level FlightAware ADS-B
Sat 06:22:46 AM 40.1229 -77.4811 73° East 499 574 24,000  Level FlightAware ADS-B
Sat 06:23:16 AM 40.1432 -77.3919 74° East 498 573 24,000  Level FlightAware ADS-B
Sat 06:23:47 AM 40.1634 -77.3024 73° East 497 572 24,000 -387 Level FlightAware ADS-B
Sat 06:24:18 AM 40.1831 -77.2160 74° East 496 571 23,600 -1,082 Descending FlightAware ADS-B
Sat 06:24:48 AM 40.2028 -77.1274 74° East 489 563 22,900 -1,452 Descending FlightAware ADS-B
Sat 06:25:20 AM 40.2229 -77.0373 74° East 486 559 22,100 -1,455 Descending FlightAware ADS-B
Sat 06:25:54 AM 40.2443 -76.9418 74° East 482 555 21,300 -1,304 Descending FlightAware ADS-B
Sat 06:26:52 AM 40.2792 -76.7821 74° East 475 547 20,100 -848 Descending FlightAware ADS-B
Sat 06:27:26 AM 40.2997 -76.6898 74° East 467 537 20,000 -1,000 Descending FlightAware ADS-B
Sat 06:27:58 AM 40.3183 -76.6061 74° East 461 531 19,000 -2,516 Descending FlightAware ADS-B
Sat 06:28:28 AM 40.3364 -76.5238 74° East 453 521 17,400 -3,061 Descending FlightAware ADS-B
Sat 06:28:47 AM 40.3471 -76.4740 74° East 446 513 16,500 -2,893 Descending FlightAware ADS-B
Sat 06:29:24 AM 40.3680 -76.3796 66° East 433 498 14,700 -3,000 Descending FlightAware ADS-B
Sat 06:29:33 AM 40.3753 -76.3580 57° Northeast 431 496 14,200 -3,150 Descending FlightAware ADS-B
Sat 06:30:04 AM 40.4084 -76.2901 57° Northeast 423 487 12,600 -2,667 Descending FlightAware ADS-B
Sat 06:30:36 AM 40.4417 -76.2218 57° Northeast 406 467 11,400 -1,594 Descending FlightAware ADS-B
Sat 06:31:08 AM 40.4720 -76.1600 58° Northeast 373 429 10,900 -871 Descending FlightAware ADS-B
Sat 06:31:38 AM 40.4984 -76.1035 57° Northeast 342 394 10,500 -700 Descending FlightAware ADS-B
Sat 06:32:08 AM 40.5229 -76.0530 58° Northeast 316 364 10,200 -783 Descending FlightAware ADS-B
Sat 06:32:24 AM 40.5348 -76.0275 58° Northeast 306 352 9,900 -1,455 Descending FlightAware ADS-B
Sat 06:32:41 AM 40.5474 -76.0007 58° Northeast 303 349 9,400 -1,297 Descending FlightAware ADS-B
Sat 06:33:01 AM 40.5622 -75.9693 58° Northeast 303 349 9,100 -973 Descending FlightAware ADS-B
Sat 06:33:18 AM 40.5742 -75.9443 61° Northeast 301 346 8,800 -1,000 Descending FlightAware ADS-B
Sat 06:33:37 AM 40.5869 -75.9141 75° East 299 344 8,500 -923 Descending FlightAware ADS-B
Sat 06:33:44 AM 40.5894 -75.9020 77° East 297 342 8,400 -1,043 Descending FlightAware ADS-B
Sat 06:34:00 AM 40.5946 -75.8722 77° East 296 341 8,100 -1,273 Descending FlightAware ADS-B
Sat 06:34:17 AM 40.5999 -75.8423 76° East 295 339 7,700 -1,273 Descending FlightAware ADS-B
Sat 06:34:33 AM 40.6047 -75.8161 78° East 294 338 7,400 -1,313 Descending FlightAware ADS-B
Sat 06:34:49 AM 40.6095 -75.7866 77° East 291 335 7,000 -1,459 Descending FlightAware ADS-B
Sat 06:35:10 AM 40.6156 -75.7523 77° East 289 333 6,500 -1,297 Descending FlightAware ADS-B
Sat 06:35:26 AM 40.6205 -75.7252 77° East 285 328 6,200 -1,161 Descending FlightAware ADS-B
Sat 06:35:41 AM 40.6249 -75.6998 78° East 284 327 5,900 -1,161 Descending FlightAware ADS-B
Sat 06:35:57 AM 40.6297 -75.6711 75° East 285 328 5,600 -1,200 Descending FlightAware ADS-B
Sat 06:36:06 AM 40.6327 -75.6559 69° East 286 329 5,400 -1,286 Descending FlightAware ADS-B
Sat 06:36:11 AM 40.6351 -75.6478 59° Northeast 287 330 5,300 -1,385 Descending FlightAware ADS-B
Sat 06:36:19 AM 40.6406 -75.6357 50° Northeast 289 333 5,100 -1,000 Descending FlightAware ADS-B
Sat 06:36:35 AM 40.6543 -75.6145 48° Northeast 288 331 4,900 -789 Descending FlightAware ADS-B
Sat 06:37:35 AM 40.7025 -75.5450 48° Northeast 273 314 4,100 -446 Descending New York Center
Sat 06:38:36 AM 40.7492 -75.4769 47° Northeast 258 297 4,000  Descending New York Center
Sat 06:39:37 AM 40.7911 -75.4169 49° Northeast 253 291 4,100  Climbing New York Center
Sat 06:40:35 AM 40.8331 -75.3539 116° Southeast 240 276 4,000 -559 Descending New York Center
Sat 06:41:35 AM 40.8086 -75.2864 174° South 168 193 3,000 -500 Descending New York Center
Sat 06:42:35 AM 40.7672 -75.2811 212° Southwest 140 161 3,000 -98 Level New York Center
Sat 06:43:37 AM 40.7369 -75.3064 212° Southwest 140 161 2,800 -194 Descending New York Center

Login

Don't have an account? Register now (free) for customized features, flight alerts, and more!